Hauptseite
METAR-TAF:

METAR-TAF

Flughäfen :

Flugplatz Pontoise-Cormeilles

Pontoise, Frankreich

Breite: 49-05-48N, Länge: 002-02-27E, Höhe: 99 m

Beobachtung

Neuester Wetterbericht von vor 17 Minuten, um 02:00 UTC
Wind 2 kt aus Süd/Südost
Temperatur 9°C
Luftfeuchtigkeit 100%
Luftdruck 1024 hPa
Sichtweite: 2800 m
Durchbrochene Bewölkung in der Höhe von 300 ft
Geschlossene Wolkendecke in der Höhe von 1000 ft
feuchter Dunst

METAR: LFPT 240200Z AUTO 15002KT 2800 BR BKN003 OVC010 09/09 Q1024

Zeit: 03:17 (02:17 UTC)


TAF: fehlend

Wetterbeobachtungen und Prognosen von mehr als 4000 Flughäfen (METAR und TAF Bericht).

Die verfügbaren Stationen werden durch gelbe und rote Markierungen auf der Karte dargestellt.

Führen Sie die Maus auf sie, um den Namen der Station zu sehen.

Darauf klicken, um die Beobachtung von Wetterbeobachtungen und Prognosen zu sehen.

Um die Karte zu ändern : klicken Sie auf den grünen Tasten mit einem schwarzen Kreuz Zum Vergrößern, auf den grünen Button mit einem Gedankenstrich zu verkleinern, oder auf die grünen Pfeile für benachbarte Karten.


METAR-TAF: